Langkawi International Airport
WMKL : now visible

Aeroporto :











RITROVATECI SU...

 
LOGIN :

Iscrizione | Disclaimer

   EN    FR    IT 

 









Sommario :    VFR   VFR Marginale   IFR   IFR Intensivo   IFR Molto Intensivo
Visibilità : 
Base nubi : 
>= 8 km
>= 3000ft
5 / 8 km
1000 / 3000 ft
1500m / 5 km
500 / 1000 ft
800 / 1500m
200 / 500 ft
< 800m
< 200 ft
Simboli :   Temporali  Nebbia  Neve Forte  Precipitazioni Forti  Vento > 20 kt






- Altitudine del aeroporto : 29 ft
- Codice IATA : LGK


WMKL - Langkawi International

ULTIMO METAR :
  • 011000Z VRB05KT 9999 FEW017CB 33/27 Q1006

METARs OBSOLETI :
  • 010900Z VRB07KT 9999 FEW022 33/26 Q1006
  • 010800Z 25007KT 160V330 9999 FEW017CB 33/27 Q1007

TAF TAF WMKL
Valido dal 01 a 06 ore il 02 a 06 ore UTC


010500Z 0106/0206 25008KT 9999 FEW020
PROB30
TEMPO 0110/0112 6000 -TSRA FEW017CB
BECMG 0112/0113 VRB03KT FEW026



MetMap, La meteo Aeronautica in un colpo d'occhio ! - Copyright ORBIFLY Dicembre 2007 - Disclaimer

ORBIFLY MET'MAP TEAM :

Programmazione e sviluppo : Alexandra Zaïnal
Concezione : Baudouin d'Aumeries
Aiuto per la programmazione : Marc-Olivier Méhu
Supporto tecnico e logistico : Manuel Goepfert
Aiuto per la traduzione : Arnaldo La Scala

Contatto : metmap@orbifly.com




FONTI E CREDITI :

   NOAA       Earth
Advisory